sensor_id;sensor_type;location;lat;lon;timestamp;temperature;humidity
19898;DHT22;10111;50.814;4.572;2023-03-01T00:01:28;0.70;99.90
19898;DHT22;10111;50.814;4.572;2023-03-01T00:03:55;0.60;99.90
19898;DHT22;10111;50.814;4.572;2023-03-01T00:06:21;0.60;99.90
19898;DHT22;10111;50.814;4.572;2023-03-01T00:08:47;0.50;99.90
19898;DHT22;10111;50.814;4.572;2023-03-01T00:11:15;0.40;99.90
19898;DHT22;10111;50.814;4.572;2023-03-01T00:13:43;0.40;99.90
19898;DHT22;10111;50.814;4.572;2023-03-01T00:16:11;0.40;99.90
19898;DHT22;10111;50.814;4.572;2023-03-01T00:18:38;0.30;99.90
19898;DHT22;10111;50.814;4.572;2023-03-01T00:21:04;0.20;99.90
19898;DHT22;10111;50.814;4.572;2023-03-01T00:23:31;0.20;99.90
19898;DHT22;10111;50.814;4.572;2023-03-01T00:25:56;0.30;99.90
19898;DHT22;10111;50.814;4.572;2023-03-01T00:28:22;0.10;99.90
19898;DHT22;10111;50.814;4.572;2023-03-01T00:30:48;0.20;99.90
19898;DHT22;10111;50.814;4.572;2023-03-01T00:33:14;0.20;99.90
19898;DHT22;10111;50.814;4.572;2023-03-01T00:35:39;0.20;99.90
19898;DHT22;10111;50.814;4.572;2023-03-01T00:38:05;0.10;99.90
19898;DHT22;10111;50.814;4.572;2023-03-01T00:40:33;0.10;99.90
19898;DHT22;10111;50.814;4.572;2023-03-01T00:42:59;0.10;99.90
19898;DHT22;10111;50.814;4.572;2023-03-01T00:45:25;0.00;99.90
19898;DHT22;10111;50.814;4.572;2023-03-01T00:47:51;-0.10;99.90
19898;DHT22;10111;50.814;4.572;2023-03-01T00:50:17;-0.10;99.90
19898;DHT22;10111;50.814;4.572;2023-03-01T00:52:43;-0.10;99.90
19898;DHT22;10111;50.814;4.572;2023-03-01T00:55:10;-0.10;99.90
19898;DHT22;10111;50.814;4.572;2023-03-01T00:57:36;-0.20;99.90
19898;DHT22;10111;50.814;4.572;2023-03-01T01:00:02;-0.10;99.90
19898;DHT22;10111;50.814;4.572;2023-03-01T01:02:29;-0.20;99.90
19898;DHT22;10111;50.814;4.572;2023-03-01T01:04:55;-0.20;99.90
19898;DHT22;10111;50.814;4.572;2023-03-01T01:07:21;-0.20;99.90
19898;DHT22;10111;50.814;4.572;2023-03-01T01:09:46;-0.10;99.90
19898;DHT22;10111;50.814;4.572;2023-03-01T01:12:12;0.00;99.90
19898;DHT22;10111;50.814;4.572;2023-03-01T01:14:38;0.00;99.90
19898;DHT22;10111;50.814;4.572;2023-03-01T01:17:04;0.20;99.90
19898;DHT22;10111;50.814;4.572;2023-03-01T01:19:30;0.10;99.90
19898;DHT22;10111;50.814;4.572;2023-03-01T01:21:56;0.30;99.90
19898;DHT22;10111;50.814;4.572;2023-03-01T01:24:22;0.10;99.90
19898;DHT22;10111;50.814;4.572;2023-03-01T01:26:48;0.10;99.90
19898;DHT22;10111;50.814;4.572;2023-03-01T01:29:14;0.10;99.90
19898;DHT22;10111;50.814;4.572;2023-03-01T01:31:41;0.00;99.90
19898;DHT22;10111;50.814;4.572;2023-03-01T01:34:08;0.10;99.90
19898;DHT22;10111;50.814;4.572;2023-03-01T01:36:37;0.10;99.90
19898;DHT22;10111;50.814;4.572;2023-03-01T01:39:03;0.00;99.90
19898;DHT22;10111;50.814;4.572;2023-03-01T01:41:29;0.10;99.90
19898;DHT22;10111;50.814;4.572;2023-03-01T01:44:15;0.00;99.90
19898;DHT22;10111;50.814;4.572;2023-03-01T01:46:46;0.20;99.90
19898;DHT22;10111;50.814;4.572;2023-03-01T01:51:57;0.00;99.90
19898;DHT22;10111;50.814;4.572;2023-03-01T01:57:09;-0.10;99.90
19898;DHT22;10111;50.814;4.572;2023-03-01T01:59:37;-0.10;99.90
19898;DHT22;10111;50.814;4.572;2023-03-01T02:02:04;-0.10;99.90
19898;DHT22;10111;50.814;4.572;2023-03-01T02:04:31;-0.10;99.90
19898;DHT22;10111;50.814;4.572;2023-03-01T02:09:26;-0.20;99.90
19898;DHT22;10111;50.814;4.572;2023-03-01T02:11:53;-0.10;99.90
19898;DHT22;10111;50.814;4.572;2023-03-01T02:14:19;-0.10;99.90
19898;DHT22;10111;50.814;4.572;2023-03-01T02:16:45;0.20;99.90
19898;DHT22;10111;50.814;4.572;2023-03-01T02:20:03;0.30;99.90
19898;DHT22;10111;50.814;4.572;2023-03-01T02:22:10;0.20;99.90
19898;DHT22;10111;50.814;4.572;2023-03-01T02:30:31;0.20;99.90
19898;DHT22;10111;50.814;4.572;2023-03-01T02:32:58;0.10;99.90
19898;DHT22;10111;50.814;4.572;2023-03-01T02:35:30;0.10;99.90
19898;DHT22;10111;50.814;4.572;2023-03-01T02:37:57;0.00;99.90
19898;DHT22;10111;50.814;4.572;2023-03-01T02:40:26;-0.10;99.90
19898;DHT22;10111;50.814;4.572;2023-03-01T02:42:56;-0.10;99.90
19898;DHT22;10111;50.814;4.572;2023-03-01T02:45:22;-0.10;99.90
19898;DHT22;10111;50.814;4.572;2023-03-01T02:47:48;0.00;99.90
19898;DHT22;10111;50.814;4.572;2023-03-01T02:53:01;-0.20;99.90
19898;DHT22;10111;50.814;4.572;2023-03-01T02:55:30;-0.20;99.90
19898;DHT22;10111;50.814;4.572;2023-03-01T02:57:56;-0.30;99.90
19898;DHT22;10111;50.814;4.572;2023-03-01T03:00:30;-0.20;99.90
19898;DHT22;10111;50.814;4.572;2023-03-01T03:02:58;-0.40;99.90
19898;DHT22;10111;50.814;4.572;2023-03-01T03:05:27;-0.50;99.90
19898;DHT22;10111;50.814;4.572;2023-03-01T03:07:53;-0.40;99.90
19898;DHT22;10111;50.814;4.572;2023-03-01T03:10:25;-0.60;99.90
19898;DHT22;10111;50.814;4.572;2023-03-01T03:12:59;-0.70;99.90
19898;DHT22;10111;50.814;4.572;2023-03-01T03:15:26;-0.80;99.90
19898;DHT22;10111;50.814;4.572;2023-03-01T03:17:53;-0.80;99.90
19898;DHT22;10111;50.814;4.572;2023-03-01T03:20:21;-0.90;99.90
19898;DHT22;10111;50.814;4.572;2023-03-01T03:22:50;-1.00;99.90
19898;DHT22;10111;50.814;4.572;2023-03-01T03:25:20;-1.00;99.90
19898;DHT22;10111;50.814;4.572;2023-03-01T03:27:48;-1.00;99.90
19898;DHT22;10111;50.814;4.572;2023-03-01T03:30:16;-1.10;99.90
19898;DHT22;10111;50.814;4.572;2023-03-01T03:32:43;-1.10;99.90
19898;DHT22;10111;50.814;4.572;2023-03-01T03:35:28;-1.20;99.90
19898;DHT22;10111;50.814;4.572;2023-03-01T03:37:56;-1.20;99.90
19898;DHT22;10111;50.814;4.572;2023-03-01T03:40:36;-1.10;99.90
19898;DHT22;10111;50.814;4.572;2023-03-01T03:43:03;-1.00;99.90
19898;DHT22;10111;50.814;4.572;2023-03-01T03:45:29;-0.90;99.90
19898;DHT22;10111;50.814;4.572;2023-03-01T03:48:02;-0.90;99.90
19898;DHT22;10111;50.814;4.572;2023-03-01T03:50:28;-0.90;99.90
19898;DHT22;10111;50.814;4.572;2023-03-01T03:52:54;-0.90;99.90
19898;DHT22;10111;50.814;4.572;2023-03-01T03:55:20;-0.80;99.90
19898;DHT22;10111;50.814;4.572;2023-03-01T03:57:47;-0.80;99.90
19898;DHT22;10111;50.814;4.572;2023-03-01T04:00:19;-0.80;99.90
19898;DHT22;10111;50.814;4.572;2023-03-01T04:02:46;-0.90;99.90
19898;DHT22;10111;50.814;4.572;2023-03-01T04:05:14;-0.90;99.90
19898;DHT22;10111;50.814;4.572;2023-03-01T04:07:41;-0.80;99.90
19898;DHT22;10111;50.814;4.572;2023-03-01T04:10:10;-1.00;99.90
19898;DHT22;10111;50.814;4.572;2023-03-01T04:12:36;-1.00;99.90
19898;DHT22;10111;50.814;4.572;2023-03-01T04:15:04;-1.00;99.90
19898;DHT22;10111;50.814;4.572;2023-03-01T04:17:43;-1.00;99.90
19898;DHT22;10111;50.814;4.572;2023-03-01T04:20:15;-0.90;99.90
19898;DHT22;10111;50.814;4.572;2023-03-01T04:22:55;-0.80;99.90
19898;DHT22;10111;50.814;4.572;2023-03-01T04:25:25;-0.90;99.90
19898;DHT22;10111;50.814;4.572;2023-03-01T04:27:51;-0.80;99.90
19898;DHT22;10111;50.814;4.572;2023-03-01T04:30:17;-0.60;99.90
19898;DHT22;10111;50.814;4.572;2023-03-01T04:32:43;-0.70;99.90
19898;DHT22;10111;50.814;4.572;2023-03-01T04:35:09;-0.70;99.90
19898;DHT22;10111;50.814;4.572;2023-03-01T04:37:35;-0.70;99.90
19898;DHT22;10111;50.814;4.572;2023-03-01T04:40:02;-0.60;99.90
19898;DHT22;10111;50.814;4.572;2023-03-01T04:42:37;-0.60;99.90
19898;DHT22;10111;50.814;4.572;2023-03-01T04:45:04;-0.60;99.90
19898;DHT22;10111;50.814;4.572;2023-03-01T04:47:39;-0.60;99.90
19898;DHT22;10111;50.814;4.572;2023-03-01T04:50:05;-0.70;99.90
19898;DHT22;10111;50.814;4.572;2023-03-01T04:52:30;-0.80;99.90
19898;DHT22;10111;50.814;4.572;2023-03-01T04:54:57;-0.80;99.90
19898;DHT22;10111;50.814;4.572;2023-03-01T04:57:22;-0.80;99.90
19898;DHT22;10111;50.814;4.572;2023-03-01T04:59:48;-0.90;99.90
19898;DHT22;10111;50.814;4.572;2023-03-01T05:02:13;-1.00;99.90
19898;DHT22;10111;50.814;4.572;2023-03-01T05:04:39;-1.10;99.90
19898;DHT22;10111;50.814;4.572;2023-03-01T05:07:05;-1.10;99.90
19898;DHT22;10111;50.814;4.572;2023-03-01T05:09:30;-1.20;99.90
19898;DHT22;10111;50.814;4.572;2023-03-01T05:11:56;-1.20;99.90
19898;DHT22;10111;50.814;4.572;2023-03-01T05:14:21;-1.20;99.90
19898;DHT22;10111;50.814;4.572;2023-03-01T05:16:48;-1.20;99.90
19898;DHT22;10111;50.814;4.572;2023-03-01T05:19:13;-1.10;99.90
19898;DHT22;10111;50.814;4.572;2023-03-01T05:21:48;-1.20;99.90
19898;DHT22;10111;50.814;4.572;2023-03-01T05:24:31;-1.20;99.90
19898;DHT22;10111;50.814;4.572;2023-03-01T05:26:57;-1.20;99.90
19898;DHT22;10111;50.814;4.572;2023-03-01T05:29:24;-1.30;99.90
19898;DHT22;10111;50.814;4.572;2023-03-01T05:31:58;-1.20;99.90
19898;DHT22;10111;50.814;4.572;2023-03-01T05:34:26;-1.30;99.90
19898;DHT22;10111;50.814;4.572;2023-03-01T05:36:53;-1.30;99.90
19898;DHT22;10111;50.814;4.572;2023-03-01T05:39:24;-1.30;99.90
19898;DHT22;10111;50.814;4.572;2023-03-01T05:41:55;-1.40;99.90
19898;DHT22;10111;50.814;4.572;2023-03-01T05:44:21;-1.40;99.90
19898;DHT22;10111;50.814;4.572;2023-03-01T05:46:47;-1.40;99.90
19898;DHT22;10111;50.814;4.572;2023-03-01T05:49:13;-1.40;99.90
19898;DHT22;10111;50.814;4.572;2023-03-01T05:51:40;-1.30;99.90
19898;DHT22;10111;50.814;4.572;2023-03-01T05:54:07;-1.30;99.90
19898;DHT22;10111;50.814;4.572;2023-03-01T05:56:34;-1.30;99.90
19898;DHT22;10111;50.814;4.572;2023-03-01T05:59:00;-1.20;99.90
19898;DHT22;10111;50.814;4.572;2023-03-01T06:01:26;-1.20;99.90
19898;DHT22;10111;50.814;4.572;2023-03-01T06:03:52;-1.10;99.90
19898;DHT22;10111;50.814;4.572;2023-03-01T06:06:18;-1.10;99.90
19898;DHT22;10111;50.814;4.572;2023-03-01T06:08:43;-1.10;99.90
19898;DHT22;10111;50.814;4.572;2023-03-01T06:11:09;-1.10;99.90
19898;DHT22;10111;50.814;4.572;2023-03-01T06:13:35;-1.10;99.90
19898;DHT22;10111;50.814;4.572;2023-03-01T06:16:00;-1.00;99.90
19898;DHT22;10111;50.814;4.572;2023-03-01T06:18:26;-1.10;99.90
19898;DHT22;10111;50.814;4.572;2023-03-01T06:20:55;-1.10;99.90
19898;DHT22;10111;50.814;4.572;2023-03-01T06:23:22;-1.00;99.90
19898;DHT22;10111;50.814;4.572;2023-03-01T06:25:48;-1.10;99.90
19898;DHT22;10111;50.814;4.572;2023-03-01T06:28:13;-1.10;99.90
19898;DHT22;10111;50.814;4.572;2023-03-01T06:30:39;-1.10;99.90
19898;DHT22;10111;50.814;4.572;2023-03-01T06:33:05;-1.10;99.90
19898;DHT22;10111;50.814;4.572;2023-03-01T06:35:31;-1.00;99.90
19898;DHT22;10111;50.814;4.572;2023-03-01T06:38:00;-0.90;99.90
19898;DHT22;10111;50.814;4.572;2023-03-01T06:40:26;-0.80;99.90
19898;DHT22;10111;50.814;4.572;2023-03-01T06:42:52;-0.90;99.90
19898;DHT22;10111;50.814;4.572;2023-03-01T06:45:19;-0.90;99.90
19898;DHT22;10111;50.814;4.572;2023-03-01T06:47:45;-1.00;99.90
19898;DHT22;10111;50.814;4.572;2023-03-01T06:50:11;-1.10;99.90
19898;DHT22;10111;50.814;4.572;2023-03-01T06:52:37;-1.00;99.90
19898;DHT22;10111;50.814;4.572;2023-03-01T06:55:04;-1.00;99.90
19898;DHT22;10111;50.814;4.572;2023-03-01T06:57:30;-0.90;99.90
19898;DHT22;10111;50.814;4.572;2023-03-01T06:59:56;-0.70;99.90
19898;DHT22;10111;50.814;4.572;2023-03-01T07:02:21;-0.70;99.90
19898;DHT22;10111;50.814;4.572;2023-03-01T07:04:52;-0.50;99.90
19898;DHT22;10111;50.814;4.572;2023-03-01T07:07:18;-0.60;99.90
19898;DHT22;10111;50.814;4.572;2023-03-01T07:09:46;-0.50;99.90
19898;DHT22;10111;50.814;4.572;2023-03-01T07:12:12;-0.40;99.90
19898;DHT22;10111;50.814;4.572;2023-03-01T07:14:38;-0.20;99.90
19898;DHT22;10111;50.814;4.572;2023-03-01T07:17:03;0.00;99.90
19898;DHT22;10111;50.814;4.572;2023-03-01T07:19:29;-0.10;99.90
19898;DHT22;10111;50.814;4.572;2023-03-01T07:21:55;0.00;99.90
19898;DHT22;10111;50.814;4.572;2023-03-01T07:24:24;-0.10;99.90
19898;DHT22;10111;50.814;4.572;2023-03-01T07:26:51;-0.10;99.90
19898;DHT22;10111;50.814;4.572;2023-03-01T07:29:17;0.10;99.90
19898;DHT22;10111;50.814;4.572;2023-03-01T07:31:43;0.10;99.90
19898;DHT22;10111;50.814;4.572;2023-03-01T07:34:09;0.00;99.90
19898;DHT22;10111;50.814;4.572;2023-03-01T07:36:36;-0.10;99.90
19898;DHT22;10111;50.814;4.572;2023-03-01T07:39:01;0.00;99.90
19898;DHT22;10111;50.814;4.572;2023-03-01T07:41:29;0.20;99.90
19898;DHT22;10111;50.814;4.572;2023-03-01T07:43:54;0.10;99.90
19898;DHT22;10111;50.814;4.572;2023-03-01T07:46:20;0.20;99.90
19898;DHT22;10111;50.814;4.572;2023-03-01T07:48:46;0.20;99.90
19898;DHT22;10111;50.814;4.572;2023-03-01T07:51:12;0.10;99.90
19898;DHT22;10111;50.814;4.572;2023-03-01T07:53:38;0.20;99.90
19898;DHT22;10111;50.814;4.572;2023-03-01T07:56:09;0.30;99.90
19898;DHT22;10111;50.814;4.572;2023-03-01T07:58:36;0.30;99.90
19898;DHT22;10111;50.814;4.572;2023-03-01T08:01:07;0.30;99.90
19898;DHT22;10111;50.814;4.572;2023-03-01T08:03:34;0.50;99.90
19898;DHT22;10111;50.814;4.572;2023-03-01T08:06:01;0.60;99.90
19898;DHT22;10111;50.814;4.572;2023-03-01T08:08:27;0.80;99.90
19898;DHT22;10111;50.814;4.572;2023-03-01T08:10:56;0.80;99.90
19898;DHT22;10111;50.814;4.572;2023-03-01T08:13:22;0.80;99.90
19898;DHT22;10111;50.814;4.572;2023-03-01T08:15:49;0.90;99.90
19898;DHT22;10111;50.814;4.572;2023-03-01T08:18:16;0.90;99.90
19898;DHT22;10111;50.814;4.572;2023-03-01T08:20:42;0.80;99.90
19898;DHT22;10111;50.814;4.572;2023-03-01T08:23:07;0.90;99.90
19898;DHT22;10111;50.814;4.572;2023-03-01T08:25:33;1.10;99.90
19898;DHT22;10111;50.814;4.572;2023-03-01T08:27:59;1.20;99.90
19898;DHT22;10111;50.814;4.572;2023-03-01T08:30:25;1.50;99.90
19898;DHT22;10111;50.814;4.572;2023-03-01T08:32:51;1.70;99.90
19898;DHT22;10111;50.814;4.572;2023-03-01T08:35:17;1.70;99.90
19898;DHT22;10111;50.814;4.572;2023-03-01T08:37:43;2.00;99.90
19898;DHT22;10111;50.814;4.572;2023-03-01T08:40:09;1.70;99.90
19898;DHT22;10111;50.814;4.572;2023-03-01T08:42:36;1.80;99.90
19898;DHT22;10111;50.814;4.572;2023-03-01T08:45:03;2.00;99.90
19898;DHT22;10111;50.814;4.572;2023-03-01T08:47:28;2.10;99.90
19898;DHT22;10111;50.814;4.572;2023-03-01T08:49:54;2.20;99.90
19898;DHT22;10111;50.814;4.572;2023-03-01T08:52:20;2.40;99.90
19898;DHT22;10111;50.814;4.572;2023-03-01T08:54:49;2.40;99.90
19898;DHT22;10111;50.814;4.572;2023-03-01T08:57:15;2.30;99.90
19898;DHT22;10111;50.814;4.572;2023-03-01T08:59:40;2.30;99.90
19898;DHT22;10111;50.814;4.572;2023-03-01T09:02:12;2.40;99.90
19898;DHT22;10111;50.814;4.572;2023-03-01T09:04:39;2.50;99.90
19898;DHT22;10111;50.814;4.572;2023-03-01T09:07:05;2.80;99.90
19898;DHT22;10111;50.814;4.572;2023-03-01T09:09:31;2.70;99.90
19898;DHT22;10111;50.814;4.572;2023-03-01T09:11:57;2.50;99.90
19898;DHT22;10111;50.814;4.572;2023-03-01T09:14:22;2.60;99.90
19898;DHT22;10111;50.814;4.572;2023-03-01T09:16:48;2.60;99.90
19898;DHT22;10111;50.814;4.572;2023-03-01T09:19:14;2.70;99.90
19898;DHT22;10111;50.814;4.572;2023-03-01T09:21:40;2.30;99.90
19898;DHT22;10111;50.814;4.572;2023-03-01T09:24:12;2.50;99.90
19898;DHT22;10111;50.814;4.572;2023-03-01T09:26:38;2.50;99.90
19898;DHT22;10111;50.814;4.572;2023-03-01T09:29:04;2.50;99.90
19898;DHT22;10111;50.814;4.572;2023-03-01T09:31:30;2.70;99.90
19898;DHT22;10111;50.814;4.572;2023-03-01T09:33:55;2.80;99.90
19898;DHT22;10111;50.814;4.572;2023-03-01T09:36:23;2.90;99.90
19898;DHT22;10111;50.814;4.572;2023-03-01T09:38:50;2.80;99.90
19898;DHT22;10111;50.814;4.572;2023-03-01T09:46:50;2.90;99.90
19898;DHT22;10111;50.814;4.572;2023-03-01T09:49:26;3.00;99.90
19898;DHT22;10111;50.814;4.572;2023-03-01T09:54:45;3.10;99.90
19898;DHT22;10111;50.814;4.572;2023-03-01T09:57:36;3.20;99.90
19898;DHT22;10111;50.814;4.572;2023-03-01T10:03:14;3.40;99.90
19898;DHT22;10111;50.814;4.572;2023-03-01T10:11:38;3.40;99.90
19898;DHT22;10111;50.814;4.572;2023-03-01T10:14:32;3.60;99.90
19898;DHT22;10111;50.814;4.572;2023-03-01T10:17:12;3.70;99.90
19898;DHT22;10111;50.814;4.572;2023-03-01T10:19:46;3.80;99.90
19898;DHT22;10111;50.814;4.572;2023-03-01T10:22:20;3.80;99.90
19898;DHT22;10111;50.814;4.572;2023-03-01T10:24:51;3.80;99.90
19898;DHT22;10111;50.814;4.572;2023-03-01T10:27:23;3.70;99.90
19898;DHT22;10111;50.814;4.572;2023-03-01T10:29:59;3.70;99.90
19898;DHT22;10111;50.814;4.572;2023-03-01T10:32:28;3.80;99.90
19898;DHT22;10111;50.814;4.572;2023-03-01T10:34:53;3.90;99.90
19898;DHT22;10111;50.814;4.572;2023-03-01T10:37:20;4.10;99.90
19898;DHT22;10111;50.814;4.572;2023-03-01T10:42:29;4.20;99.90
19898;DHT22;10111;50.814;4.572;2023-03-01T10:44:55;4.30;99.90
19898;DHT22;10111;50.814;4.572;2023-03-01T10:47:27;4.20;99.90
19898;DHT22;10111;50.814;4.572;2023-03-01T10:49:55;4.30;99.90
19898;DHT22;10111;50.814;4.572;2023-03-01T10:52:27;4.30;99.90
19898;DHT22;10111;50.814;4.572;2023-03-01T10:54:56;4.30;99.90
19898;DHT22;10111;50.814;4.572;2023-03-01T10:57:42;4.50;99.90
19898;DHT22;10111;50.814;4.572;2023-03-01T11:00:25;4.70;99.90
19898;DHT22;10111;50.814;4.572;2023-03-01T11:03:03;4.70;99.90
19898;DHT22;10111;50.814;4.572;2023-03-01T11:05:32;4.80;99.90
19898;DHT22;10111;50.814;4.572;2023-03-01T11:08:00;4.70;99.90
19898;DHT22;10111;50.814;4.572;2023-03-01T11:10:32;4.70;99.90
19898;DHT22;10111;50.814;4.572;2023-03-01T11:13:18;4.70;99.90
19898;DHT22;10111;50.814;4.572;2023-03-01T11:16:06;4.90;99.90
19898;DHT22;10111;50.814;4.572;2023-03-01T11:18:32;4.70;99.90
19898;DHT22;10111;50.814;4.572;2023-03-01T11:20:59;4.70;99.90
19898;DHT22;10111;50.814;4.572;2023-03-01T11:23:28;5.10;99.90
19898;DHT22;10111;50.814;4.572;2023-03-01T11:26:05;5.10;99.90
19898;DHT22;10111;50.814;4.572;2023-03-01T11:28:33;5.20;99.90
19898;DHT22;10111;50.814;4.572;2023-03-01T11:31:11;5.10;99.90
19898;DHT22;10111;50.814;4.572;2023-03-01T11:33:45;5.10;99.90
19898;DHT22;10111;50.814;4.572;2023-03-01T11:36:41;5.30;99.90
19898;DHT22;10111;50.814;4.572;2023-03-01T11:39:33;5.50;99.90
19898;DHT22;10111;50.814;4.572;2023-03-01T11:44:35;5.20;99.90
19898;DHT22;10111;50.814;4.572;2023-03-01T11:47:24;5.30;99.90
19898;DHT22;10111;50.814;4.572;2023-03-01T11:52:58;5.40;99.90
19898;DHT22;10111;50.814;4.572;2023-03-01T12:01:03;5.70;99.90
19898;DHT22;10111;50.814;4.572;2023-03-01T12:03:43;5.70;99.90
19898;DHT22;10111;50.814;4.572;2023-03-01T12:12:24;5.70;99.90
19898;DHT22;10111;50.814;4.572;2023-03-01T12:23:00;5.70;99.90
19898;DHT22;10111;50.814;4.572;2023-03-01T12:36:58;6.30;99.90
19898;DHT22;10111;50.814;4.572;2023-03-01T12:42:36;6.10;99.90
19898;DHT22;10111;50.814;4.572;2023-03-01T12:47:36;6.40;99.90
19898;DHT22;10111;50.814;4.572;2023-03-01T12:53:34;6.30;99.90
19898;DHT22;10111;50.814;4.572;2023-03-01T12:56:06;6.40;99.90
19898;DHT22;10111;50.814;4.572;2023-03-01T13:15:36;6.60;99.90
19898;DHT22;10111;50.814;4.572;2023-03-01T13:18:07;6.50;99.90
19898;DHT22;10111;50.814;4.572;2023-03-01T13:20:55;6.40;99.90
19898;DHT22;10111;50.814;4.572;2023-03-01T13:26:05;6.30;99.90
19898;DHT22;10111;50.814;4.572;2023-03-01T13:30:58;6.30;99.90
19898;DHT22;10111;50.814;4.572;2023-03-01T13:35:56;6.20;99.90
19898;DHT22;10111;50.814;4.572;2023-03-01T13:38:45;6.30;99.90
19898;DHT22;10111;50.814;4.572;2023-03-01T13:41:13;6.30;99.90
19898;DHT22;10111;50.814;4.572;2023-03-01T13:43:42;6.40;99.90
19898;DHT22;10111;50.814;4.572;2023-03-01T13:46:21;6.40;99.90
19898;DHT22;10111;50.814;4.572;2023-03-01T13:48:50;6.20;99.90
19898;DHT22;10111;50.814;4.572;2023-03-01T13:51:25;6.30;99.90
19898;DHT22;10111;50.814;4.572;2023-03-01T13:53:52;6.30;99.90
19898;DHT22;10111;50.814;4.572;2023-03-01T13:56:26;6.40;99.90
19898;DHT22;10111;50.814;4.572;2023-03-01T13:59:02;6.40;99.90
19898;DHT22;10111;50.814;4.572;2023-03-01T14:01:34;6.40;99.90
19898;DHT22;10111;50.814;4.572;2023-03-01T14:04:01;6.50;99.90
19898;DHT22;10111;50.814;4.572;2023-03-01T14:06:32;6.70;99.90
19898;DHT22;10111;50.814;4.572;2023-03-01T14:09:16;6.60;99.90
19898;DHT22;10111;50.814;4.572;2023-03-01T14:11:55;6.60;99.90
19898;DHT22;10111;50.814;4.572;2023-03-01T14:20:00;6.80;99.90
19898;DHT22;10111;50.814;4.572;2023-03-01T14:22:34;6.70;99.90
19898;DHT22;10111;50.814;4.572;2023-03-01T14:25:03;6.70;99.90
19898;DHT22;10111;50.814;4.572;2023-03-01T14:27:36;6.80;99.90
19898;DHT22;10111;50.814;4.572;2023-03-01T14:32:38;6.50;99.90
19898;DHT22;10111;50.814;4.572;2023-03-01T14:35:23;6.80;99.90
19898;DHT22;10111;50.814;4.572;2023-03-01T14:37:49;6.60;99.90
19898;DHT22;10111;50.814;4.572;2023-03-01T14:40:41;6.80;99.90
19898;DHT22;10111;50.814;4.572;2023-03-01T14:43:13;6.60;99.90
19898;DHT22;10111;50.814;4.572;2023-03-01T14:45:47;6.60;99.90
19898;DHT22;10111;50.814;4.572;2023-03-01T14:48:15;6.70;99.90
19898;DHT22;10111;50.814;4.572;2023-03-01T14:50:42;6.70;99.90
19898;DHT22;10111;50.814;4.572;2023-03-01T14:53:17;6.80;99.90
19898;DHT22;10111;50.814;4.572;2023-03-01T14:55:47;6.90;99.90
19898;DHT22;10111;50.814;4.572;2023-03-01T14:58:16;6.90;99.90
19898;DHT22;10111;50.814;4.572;2023-03-01T15:00:55;6.90;99.90
19898;DHT22;10111;50.814;4.572;2023-03-01T15:03:32;6.80;99.90
19898;DHT22;10111;50.814;4.572;2023-03-01T15:06:00;6.70;99.90
19898;DHT22;10111;50.814;4.572;2023-03-01T15:08:27;6.70;99.90
19898;DHT22;10111;50.814;4.572;2023-03-01T15:11:05;6.80;99.90
19898;DHT22;10111;50.814;4.572;2023-03-01T15:13:35;6.80;99.90
19898;DHT22;10111;50.814;4.572;2023-03-01T15:16:07;6.80;99.90
19898;DHT22;10111;50.814;4.572;2023-03-01T15:18:35;6.90;99.90
19898;DHT22;10111;50.814;4.572;2023-03-01T15:21:14;6.90;99.90
19898;DHT22;10111;50.814;4.572;2023-03-01T15:23:40;6.90;99.90
19898;DHT22;10111;50.814;4.572;2023-03-01T15:26:16;7.00;99.90
19898;DHT22;10111;50.814;4.572;2023-03-01T15:28:50;6.90;99.90
19898;DHT22;10111;50.814;4.572;2023-03-01T15:31:28;7.00;99.90
19898;DHT22;10111;50.814;4.572;2023-03-01T15:34:20;7.00;99.90
19898;DHT22;10111;50.814;4.572;2023-03-01T15:36:47;7.10;99.90
19898;DHT22;10111;50.814;4.572;2023-03-01T15:39:31;7.10;99.90
19898;DHT22;10111;50.814;4.572;2023-03-01T15:41:59;7.40;99.90
19898;DHT22;10111;50.814;4.572;2023-03-01T15:44:31;7.20;99.90
19898;DHT22;10111;50.814;4.572;2023-03-01T15:46:57;7.20;99.90
19898;DHT22;10111;50.814;4.572;2023-03-01T15:49:34;7.20;99.90
19898;DHT22;10111;50.814;4.572;2023-03-01T15:52:01;7.20;99.90
19898;DHT22;10111;50.814;4.572;2023-03-01T15:54:27;7.10;99.90
19898;DHT22;10111;50.814;4.572;2023-03-01T15:56:53;7.20;99.90
19898;DHT22;10111;50.814;4.572;2023-03-01T15:59:19;7.10;99.90
19898;DHT22;10111;50.814;4.572;2023-03-01T16:01:45;7.00;99.90
19898;DHT22;10111;50.814;4.572;2023-03-01T16:04:11;6.80;99.90
19898;DHT22;10111;50.814;4.572;2023-03-01T16:06:53;6.80;99.90
19898;DHT22;10111;50.814;4.572;2023-03-01T16:09:25;6.90;99.90
19898;DHT22;10111;50.814;4.572;2023-03-01T16:11:52;6.90;99.90
19898;DHT22;10111;50.814;4.572;2023-03-01T16:14:19;7.00;99.90
19898;DHT22;10111;50.814;4.572;2023-03-01T16:16:45;7.00;99.90
19898;DHT22;10111;50.814;4.572;2023-03-01T16:19:13;7.10;99.90
19898;DHT22;10111;50.814;4.572;2023-03-01T16:21:40;7.00;99.90
19898;DHT22;10111;50.814;4.572;2023-03-01T16:24:07;7.10;99.90
19898;DHT22;10111;50.814;4.572;2023-03-01T16:26:33;6.80;99.90
19898;DHT22;10111;50.814;4.572;2023-03-01T16:28:59;6.90;99.90
19898;DHT22;10111;50.814;4.572;2023-03-01T16:31:25;6.90;99.90
19898;DHT22;10111;50.814;4.572;2023-03-01T16:33:58;7.00;99.90
19898;DHT22;10111;50.814;4.572;2023-03-01T16:36:26;6.80;99.90
19898;DHT22;10111;50.814;4.572;2023-03-01T16:38:54;6.70;99.90
19898;DHT22;10111;50.814;4.572;2023-03-01T16:41:22;6.60;99.90
19898;DHT22;10111;50.814;4.572;2023-03-01T16:43:49;6.50;99.90
19898;DHT22;10111;50.814;4.572;2023-03-01T16:46:18;6.50;99.90
19898;DHT22;10111;50.814;4.572;2023-03-01T16:48:44;6.50;99.90
19898;DHT22;10111;50.814;4.572;2023-03-01T16:51:10;6.40;99.90
19898;DHT22;10111;50.814;4.572;2023-03-01T16:53:37;6.40;99.90
19898;DHT22;10111;50.814;4.572;2023-03-01T16:56:05;6.20;99.90
19898;DHT22;10111;50.814;4.572;2023-03-01T16:58:31;6.10;99.90
19898;DHT22;10111;50.814;4.572;2023-03-01T17:01:00;6.30;99.90
19898;DHT22;10111;50.814;4.572;2023-03-01T17:03:28;6.20;99.90
19898;DHT22;10111;50.814;4.572;2023-03-01T17:05:55;6.60;99.90
19898;DHT22;10111;50.814;4.572;2023-03-01T17:08:20;6.40;99.90
19898;DHT22;10111;50.814;4.572;2023-03-01T17:10:46;6.40;99.90
19898;DHT22;10111;50.814;4.572;2023-03-01T17:13:12;6.20;99.90
19898;DHT22;10111;50.814;4.572;2023-03-01T17:15:39;6.20;99.90
19898;DHT22;10111;50.814;4.572;2023-03-01T17:18:06;6.40;99.90
19898;DHT22;10111;50.814;4.572;2023-03-01T17:20:31;6.10;99.90
19898;DHT22;10111;50.814;4.572;2023-03-01T17:22:57;6.20;99.90
19898;DHT22;10111;50.814;4.572;2023-03-01T17:25:23;6.10;99.90
19898;DHT22;10111;50.814;4.572;2023-03-01T17:27:49;6.10;99.90
19898;DHT22;10111;50.814;4.572;2023-03-01T17:30:14;6.10;99.90
19898;DHT22;10111;50.814;4.572;2023-03-01T17:32:40;5.90;99.90
19898;DHT22;10111;50.814;4.572;2023-03-01T17:35:06;6.00;99.90
19898;DHT22;10111;50.814;4.572;2023-03-01T17:37:33;5.90;99.90
19898;DHT22;10111;50.814;4.572;2023-03-01T17:39:59;5.80;99.90
19898;DHT22;10111;50.814;4.572;2023-03-01T17:42:24;5.70;99.90
19898;DHT22;10111;50.814;4.572;2023-03-01T17:44:50;5.90;99.90
19898;DHT22;10111;50.814;4.572;2023-03-01T17:47:16;5.80;99.90